sensor_id;sensor_type;location;lat;lon;timestamp;pressure;altitude;pressure_sealevel;temperature;humidity
22206;BME280;11272;50.104;8.754;2022-09-09T00:04:30;100050.34;;;18.90;63.24
22206;BME280;11272;50.104;8.754;2022-09-09T00:07:04;100047.53;;;18.92;63.19
22206;BME280;11272;50.104;8.754;2022-09-09T00:09:50;100046.56;;;18.93;63.13
22206;BME280;11272;50.104;8.754;2022-09-09T00:12:25;100055.44;;;18.95;63.01
22206;BME280;11272;50.104;8.754;2022-09-09T00:15:19;100041.03;;;18.96;63.06
22206;BME280;11272;50.104;8.754;2022-09-09T00:17:52;100041.84;;;18.97;63.04
22206;BME280;11272;50.104;8.754;2022-09-09T00:20:35;100047.16;;;18.98;63.22
22206;BME280;11272;50.104;8.754;2022-09-09T00:26:00;100045.41;;;18.97;62.83
22206;BME280;11272;50.104;8.754;2022-09-09T00:28:28;100042.94;;;18.94;63.08
22206;BME280;11272;50.104;8.754;2022-09-09T00:31:04;100043.13;;;18.91;63.11
22206;BME280;11272;50.104;8.754;2022-09-09T00:33:34;100040.69;;;18.86;63.20
22206;BME280;11272;50.104;8.754;2022-09-09T00:36:00;100040.03;;;18.83;63.25
22206;BME280;11272;50.104;8.754;2022-09-09T00:41:21;100041.47;;;18.74;63.51
22206;BME280;11272;50.104;8.754;2022-09-09T00:44:01;100036.19;;;18.73;63.69
22206;BME280;11272;50.104;8.754;2022-09-09T00:49:45;100051.75;;;18.68;63.82
22206;BME280;11272;50.104;8.754;2022-09-09T00:52:44;100049.63;;;18.59;64.12
22206;BME280;11272;50.104;8.754;2022-09-09T00:58:08;100050.03;;;18.51;64.20
22206;BME280;11272;50.104;8.754;2022-09-09T01:00:44;100055.78;;;18.45;64.45
22206;BME280;11272;50.104;8.754;2022-09-09T01:09:03;100052.91;;;18.18;64.95
22206;BME280;11272;50.104;8.754;2022-09-09T01:11:57;100045.19;;;18.12;65.24
22206;BME280;11272;50.104;8.754;2022-09-09T01:17:44;100049.72;;;17.96;65.88
22206;BME280;11272;50.104;8.754;2022-09-09T01:20:19;100046.56;;;17.89;65.98
22206;BME280;11272;50.104;8.754;2022-09-09T01:26:18;100049.50;;;17.69;66.39
22206;BME280;11272;50.104;8.754;2022-09-09T01:28:48;100049.69;;;17.66;66.72
22206;BME280;11272;50.104;8.754;2022-09-09T01:31:19;100048.19;;;17.60;66.89
22206;BME280;11272;50.104;8.754;2022-09-09T01:33:47;100044.09;;;17.53;67.05
22206;BME280;11272;50.104;8.754;2022-09-09T01:36:31;100045.47;;;17.45;67.47
22206;BME280;11272;50.104;8.754;2022-09-09T01:38:59;100031.25;;;17.43;67.75
22206;BME280;11272;50.104;8.754;2022-09-09T01:41:27;100028.84;;;17.38;67.89
22206;BME280;11272;50.104;8.754;2022-09-09T01:44:05;100036.22;;;17.35;68.31
22206;BME280;11272;50.104;8.754;2022-09-09T01:46:34;100046.16;;;17.33;68.34
22206;BME280;11272;50.104;8.754;2022-09-09T01:49:02;100031.97;;;17.31;68.49
22206;BME280;11272;50.104;8.754;2022-09-09T01:51:30;100040.97;;;17.30;68.68
22206;BME280;11272;50.104;8.754;2022-09-09T01:53:59;100044.59;;;17.29;68.82
22206;BME280;11272;50.104;8.754;2022-09-09T02:04:22;100027.19;;;17.20;69.31
22206;BME280;11272;50.104;8.754;2022-09-09T02:06:53;100034.59;;;17.15;69.73
22206;BME280;11272;50.104;8.754;2022-09-09T02:09:26;100044.91;;;17.07;70.13
22206;BME280;11272;50.104;8.754;2022-09-09T02:12:01;100044.47;;;16.99;70.53
22206;BME280;11272;50.104;8.754;2022-09-09T02:14:43;100042.81;;;16.96;70.68
22206;BME280;11272;50.104;8.754;2022-09-09T02:17:11;100042.88;;;16.95;70.81
22206;BME280;11272;50.104;8.754;2022-09-09T02:20:13;100050.84;;;16.96;71.21
22206;BME280;11272;50.104;8.754;2022-09-09T02:23:07;100044.97;;;17.05;71.20
22206;BME280;11272;50.104;8.754;2022-09-09T02:25:36;100050.88;;;17.12;70.90
22206;BME280;11272;50.104;8.754;2022-09-09T02:28:14;100044.56;;;17.13;71.08
22206;BME280;11272;50.104;8.754;2022-09-09T02:30:42;100060.75;;;17.11;71.14
22206;BME280;11272;50.104;8.754;2022-09-09T02:33:15;100064.31;;;17.12;71.49
22206;BME280;11272;50.104;8.754;2022-09-09T02:35:45;100058.00;;;17.13;71.63
22206;BME280;11272;50.104;8.754;2022-09-09T02:38:15;100051.50;;;17.17;71.54
22206;BME280;11272;50.104;8.754;2022-09-09T02:40:53;100056.72;;;17.20;71.60
22206;BME280;11272;50.104;8.754;2022-09-09T02:43:19;100056.72;;;17.20;71.72
22206;BME280;11272;50.104;8.754;2022-09-09T02:52:07;100051.59;;;17.31;71.95
22206;BME280;11272;50.104;8.754;2022-09-09T02:54:37;100053.19;;;17.35;71.93
22206;BME280;11272;50.104;8.754;2022-09-09T02:57:11;100042.25;;;17.38;71.94
22206;BME280;11272;50.104;8.754;2022-09-09T02:59:39;100051.88;;;17.42;71.98
22206;BME280;11272;50.104;8.754;2022-09-09T03:02:07;100064.34;;;17.43;71.80
22206;BME280;11272;50.104;8.754;2022-09-09T03:04:35;100063.22;;;17.47;71.90
22206;BME280;11272;50.104;8.754;2022-09-09T03:07:01;100063.81;;;17.52;72.00
22206;BME280;11272;50.104;8.754;2022-09-09T03:09:28;100049.38;;;17.55;71.83
22206;BME280;11272;50.104;8.754;2022-09-09T03:11:55;100057.19;;;17.59;71.57
22206;BME280;11272;50.104;8.754;2022-09-09T03:14:23;100051.75;;;17.61;71.43
22206;BME280;11272;50.104;8.754;2022-09-09T03:16:51;100057.13;;;17.61;71.62
22206;BME280;11272;50.104;8.754;2022-09-09T03:19:18;100053.38;;;17.63;71.43
22206;BME280;11272;50.104;8.754;2022-09-09T03:21:45;100050.53;;;17.66;71.38
22206;BME280;11272;50.104;8.754;2022-09-09T03:24:11;100045.19;;;17.66;71.49
22206;BME280;11272;50.104;8.754;2022-09-09T03:26:37;100043.44;;;17.65;71.27
22206;BME280;11272;50.104;8.754;2022-09-09T03:29:07;100044.38;;;17.64;71.39
22206;BME280;11272;50.104;8.754;2022-09-09T03:31:34;100048.13;;;17.62;71.14
22206;BME280;11272;50.104;8.754;2022-09-09T03:34:02;100044.88;;;17.55;71.26
22206;BME280;11272;50.104;8.754;2022-09-09T03:36:32;100046.16;;;17.48;71.54
22206;BME280;11272;50.104;8.754;2022-09-09T03:38:58;100042.72;;;17.46;71.68
22206;BME280;11272;50.104;8.754;2022-09-09T03:41:29;100040.09;;;17.45;71.69
22206;BME280;11272;50.104;8.754;2022-09-09T03:43:55;100049.38;;;17.39;71.70
22206;BME280;11272;50.104;8.754;2022-09-09T03:46:24;100044.16;;;17.36;71.92
22206;BME280;11272;50.104;8.754;2022-09-09T03:48:50;100046.94;;;17.35;72.13
22206;BME280;11272;50.104;8.754;2022-09-09T03:51:17;100050.50;;;17.35;72.15
22206;BME280;11272;50.104;8.754;2022-09-09T03:53:43;100038.78;;;17.36;72.38
22206;BME280;11272;50.104;8.754;2022-09-09T03:56:09;100035.94;;;17.39;72.40
22206;BME280;11272;50.104;8.754;2022-09-09T03:58:36;100032.22;;;17.42;72.29
22206;BME280;11272;50.104;8.754;2022-09-09T04:01:13;100033.88;;;17.44;72.35
22206;BME280;11272;50.104;8.754;2022-09-09T04:03:40;100030.31;;;17.44;72.37
22206;BME280;11272;50.104;8.754;2022-09-09T04:06:10;100030.25;;;17.45;72.38
22206;BME280;11272;50.104;8.754;2022-09-09T04:08:41;100033.88;;;17.44;72.06
22206;BME280;11272;50.104;8.754;2022-09-09T04:11:07;100033.00;;;17.44;72.27
22206;BME280;11272;50.104;8.754;2022-09-09T04:13:35;100030.41;;;17.42;72.34
22206;BME280;11272;50.104;8.754;2022-09-09T04:16:03;100025.22;;;17.39;72.17
22206;BME280;11272;50.104;8.754;2022-09-09T04:18:29;100027.09;;;17.37;72.13
22206;BME280;11272;50.104;8.754;2022-09-09T04:20:56;100030.84;;;17.35;72.18
22206;BME280;11272;50.104;8.754;2022-09-09T04:23:28;100033.59;;;17.33;72.33
22206;BME280;11272;50.104;8.754;2022-09-09T04:25:59;100027.44;;;17.31;72.12
22206;BME280;11272;50.104;8.754;2022-09-09T04:28:28;100031.97;;;17.31;72.27
22206;BME280;11272;50.104;8.754;2022-09-09T04:30:54;100043.66;;;17.30;72.29
22206;BME280;11272;50.104;8.754;2022-09-09T04:33:25;100030.22;;;17.30;72.34
22206;BME280;11272;50.104;8.754;2022-09-09T04:35:52;100026.69;;;17.29;72.46
22206;BME280;11272;50.104;8.754;2022-09-09T04:38:20;100037.41;;;17.29;72.43
22206;BME280;11272;50.104;8.754;2022-09-09T04:40:49;100024.94;;;17.28;72.58
22206;BME280;11272;50.104;8.754;2022-09-09T04:43:16;100018.78;;;17.26;72.34
22206;BME280;11272;50.104;8.754;2022-09-09T04:45:43;100024.16;;;17.26;72.42
22206;BME280;11272;50.104;8.754;2022-09-09T04:48:11;100024.16;;;17.26;72.33
22206;BME280;11272;50.104;8.754;2022-09-09T04:50:37;100025.00;;;17.26;72.47
22206;BME280;11272;50.104;8.754;2022-09-09T04:53:07;100025.00;;;17.26;72.44
22206;BME280;11272;50.104;8.754;2022-09-09T04:55:36;100026.75;;;17.27;72.60
22206;BME280;11272;50.104;8.754;2022-09-09T04:58:05;100024.88;;;17.30;72.64
22206;BME280;11272;50.104;8.754;2022-09-09T05:00:32;100031.88;;;17.32;72.48
22206;BME280;11272;50.104;8.754;2022-09-09T05:03:03;100027.22;;;17.36;72.80
22206;BME280;11272;50.104;8.754;2022-09-09T05:05:29;100040.44;;;17.39;72.70
22206;BME280;11272;50.104;8.754;2022-09-09T05:08:01;100042.94;;;17.42;72.77
22206;BME280;11272;50.104;8.754;2022-09-09T05:10:27;100049.09;;;17.44;72.64
22206;BME280;11272;50.104;8.754;2022-09-09T05:12:53;100055.16;;;17.47;72.47
22206;BME280;11272;50.104;8.754;2022-09-09T05:15:19;100052.31;;;17.50;72.27
22206;BME280;11272;50.104;8.754;2022-09-09T05:17:46;100060.19;;;17.53;72.35
22206;BME280;11272;50.104;8.754;2022-09-09T05:20:12;100062.81;;;17.55;72.32
22206;BME280;11272;50.104;8.754;2022-09-09T05:22:37;100062.63;;;17.58;72.20
22206;BME280;11272;50.104;8.754;2022-09-09T05:25:03;100062.63;;;17.58;72.08
22206;BME280;11272;50.104;8.754;2022-09-09T05:27:29;100080.44;;;17.60;72.01
22206;BME280;11272;50.104;8.754;2022-09-09T05:29:57;100082.94;;;17.63;72.15
22206;BME280;11272;50.104;8.754;2022-09-09T05:32:23;100076.53;;;17.66;72.16
22206;BME280;11272;50.104;8.754;2022-09-09T05:34:49;100085.19;;;17.71;72.05
22206;BME280;11272;50.104;8.754;2022-09-09T05:37:16;100082.25;;;17.76;71.89
22206;BME280;11272;50.104;8.754;2022-09-09T05:39:42;100083.63;;;17.83;71.81
22206;BME280;11272;50.104;8.754;2022-09-09T05:42:10;100087.78;;;17.88;71.59
22206;BME280;11272;50.104;8.754;2022-09-09T05:44:38;100086.75;;;17.91;71.44
22206;BME280;11272;50.104;8.754;2022-09-09T05:47:07;100092.72;;;17.96;71.34
22206;BME280;11272;50.104;8.754;2022-09-09T05:49:33;100095.06;;;18.02;71.44
22206;BME280;11272;50.104;8.754;2022-09-09T05:51:58;100100.88;;;18.10;71.21
22206;BME280;11272;50.104;8.754;2022-09-09T05:54:24;100096.00;;;18.17;70.88
22206;BME280;11272;50.104;8.754;2022-09-09T05:56:51;100093.81;;;18.23;71.00
22206;BME280;11272;50.104;8.754;2022-09-09T05:59:18;100103.34;;;18.29;70.65
22206;BME280;11272;50.104;8.754;2022-09-09T06:01:46;100107.34;;;18.37;70.45
22206;BME280;11272;50.104;8.754;2022-09-09T06:04:21;100101.56;;;18.43;70.23
22206;BME280;11272;50.104;8.754;2022-09-09T06:06:50;100116.47;;;18.49;69.80
22206;BME280;11272;50.104;8.754;2022-09-09T06:09:18;100102.78;;;18.54;69.61
22206;BME280;11272;50.104;8.754;2022-09-09T06:11:43;100104.16;;;18.61;69.63
22206;BME280;11272;50.104;8.754;2022-09-09T06:14:10;100107.28;;;18.69;69.37
22206;BME280;11272;50.104;8.754;2022-09-09T06:16:37;100107.94;;;18.72;68.87
22206;BME280;11272;50.104;8.754;2022-09-09T06:19:14;100111.16;;;18.79;68.58
22206;BME280;11272;50.104;8.754;2022-09-09T06:21:40;100109.91;;;18.84;68.13
22206;BME280;11272;50.104;8.754;2022-09-09T06:24:07;100104.41;;;18.86;67.91
22206;BME280;11272;50.104;8.754;2022-09-09T06:26:35;100105.13;;;19.04;68.22
22206;BME280;11272;50.104;8.754;2022-09-09T06:29:04;100103.91;;;19.52;67.90
22206;BME280;11272;50.104;8.754;2022-09-09T06:31:31;100092.75;;;19.99;66.80
22206;BME280;11272;50.104;8.754;2022-09-09T06:34:07;100100.72;;;20.41;65.40
22206;BME280;11272;50.104;8.754;2022-09-09T06:36:38;100098.88;;;20.81;64.32
22206;BME280;11272;50.104;8.754;2022-09-09T06:39:05;100094.78;;;21.01;63.11
22206;BME280;11272;50.104;8.754;2022-09-09T06:41:33;100093.19;;;21.11;62.52
22206;BME280;11272;50.104;8.754;2022-09-09T06:44:00;100098.53;;;21.25;62.05
22206;BME280;11272;50.104;8.754;2022-09-09T06:46:41;100106.78;;;21.60;60.78
22206;BME280;11272;50.104;8.754;2022-09-09T06:49:08;100089.34;;;21.77;59.47
22206;BME280;11272;50.104;8.754;2022-09-09T06:51:36;100103.66;;;21.66;58.65
22206;BME280;11272;50.104;8.754;2022-09-09T06:54:04;100098.06;;;21.57;58.89
22206;BME280;11272;50.104;8.754;2022-09-09T06:56:33;100106.16;;;21.44;58.60
22206;BME280;11272;50.104;8.754;2022-09-09T06:59:07;100106.50;;;21.39;59.00
22206;BME280;11272;50.104;8.754;2022-09-09T07:01:36;100101.97;;;21.40;58.83
22206;BME280;11272;50.104;8.754;2022-09-09T07:04:08;100109.31;;;21.38;58.92
22206;BME280;11272;50.104;8.754;2022-09-09T07:06:38;100102.94;;;21.39;58.47
22206;BME280;11272;50.104;8.754;2022-09-09T07:09:16;100097.84;;;21.34;58.45
22206;BME280;11272;50.104;8.754;2022-09-09T07:11:48;100098.50;;;21.38;58.68
22206;BME280;11272;50.104;8.754;2022-09-09T07:14:15;100094.50;;;21.56;58.56
22206;BME280;11272;50.104;8.754;2022-09-09T07:16:45;100102.69;;;21.67;58.35
22206;BME280;11272;50.104;8.754;2022-09-09T07:19:12;100109.41;;;21.49;58.07
22206;BME280;11272;50.104;8.754;2022-09-09T07:21:40;100105.63;;;21.39;58.04
22206;BME280;11272;50.104;8.754;2022-09-09T07:24:11;100105.97;;;21.22;58.14
22206;BME280;11272;50.104;8.754;2022-09-09T07:26:39;100122.25;;;21.08;58.45
22206;BME280;11272;50.104;8.754;2022-09-09T07:29:06;100117.25;;;20.89;58.53
22206;BME280;11272;50.104;8.754;2022-09-09T07:31:35;100117.00;;;20.79;58.85
22206;BME280;11272;50.104;8.754;2022-09-09T07:34:03;100117.66;;;20.70;59.08
22206;BME280;11272;50.104;8.754;2022-09-09T07:36:31;100119.25;;;20.60;59.16
22206;BME280;11272;50.104;8.754;2022-09-09T07:39:01;100114.25;;;20.54;59.29
22206;BME280;11272;50.104;8.754;2022-09-09T07:41:34;100115.75;;;20.45;59.62
22206;BME280;11272;50.104;8.754;2022-09-09T07:44:08;100125.13;;;20.40;59.70
22206;BME280;11272;50.104;8.754;2022-09-09T07:46:35;100123.31;;;20.40;59.76
22206;BME280;11272;50.104;8.754;2022-09-09T07:49:01;100126.66;;;20.44;59.91
22206;BME280;11272;50.104;8.754;2022-09-09T07:51:33;100129.91;;;20.49;59.92
22206;BME280;11272;50.104;8.754;2022-09-09T07:54:04;100132.19;;;20.55;60.05
22206;BME280;11272;50.104;8.754;2022-09-09T07:56:32;100136.63;;;20.56;59.91
22206;BME280;11272;50.104;8.754;2022-09-09T07:59:01;100142.03;;;20.56;59.93
22206;BME280;11272;50.104;8.754;2022-09-09T08:01:30;100137.59;;;20.55;59.97
22206;BME280;11272;50.104;8.754;2022-09-09T08:03:58;100154.31;;;20.60;60.12
22206;BME280;11272;50.104;8.754;2022-09-09T08:06:32;100153.25;;;20.63;59.86
22206;BME280;11272;50.104;8.754;2022-09-09T08:08:59;100154.78;;;20.67;59.95
22206;BME280;11272;50.104;8.754;2022-09-09T08:11:26;100159.00;;;20.71;59.93
22206;BME280;11272;50.104;8.754;2022-09-09T08:13:52;100154.38;;;20.73;59.95
22206;BME280;11272;50.104;8.754;2022-09-09T08:16:26;100153.50;;;20.72;59.57
22206;BME280;11272;50.104;8.754;2022-09-09T08:18:52;100160.53;;;20.75;59.68
22206;BME280;11272;50.104;8.754;2022-09-09T08:21:24;100162.47;;;20.73;59.70
22206;BME280;11272;50.104;8.754;2022-09-09T08:23:52;100158.06;;;20.84;59.71
22206;BME280;11272;50.104;8.754;2022-09-09T08:26:22;100152.66;;;20.84;59.44
22206;BME280;11272;50.104;8.754;2022-09-09T08:28:54;100158.97;;;20.97;59.65
22206;BME280;11272;50.104;8.754;2022-09-09T08:31:26;100163.31;;;21.13;59.16
22206;BME280;11272;50.104;8.754;2022-09-09T08:33:54;100174.16;;;21.25;58.60
22206;BME280;11272;50.104;8.754;2022-09-09T08:36:23;100163.56;;;21.35;58.61
22206;BME280;11272;50.104;8.754;2022-09-09T08:38:51;100166.81;;;21.40;58.18
22206;BME280;11272;50.104;8.754;2022-09-09T08:41:39;100166.47;;;21.45;58.01
22206;BME280;11272;50.104;8.754;2022-09-09T08:44:13;100162.91;;;21.44;57.93
22206;BME280;11272;50.104;8.754;2022-09-09T08:47:04;100168.22;;;21.46;57.80
22206;BME280;11272;50.104;8.754;2022-09-09T08:52:48;100168.75;;;21.38;57.58
22206;BME280;11272;50.104;8.754;2022-09-09T08:57:51;100172.88;;;21.69;57.31
22206;BME280;11272;50.104;8.754;2022-09-09T09:00:18;100166.13;;;21.74;56.52
22206;BME280;11272;50.104;8.754;2022-09-09T09:05:37;100154.00;;;21.93;56.17
22206;BME280;11272;50.104;8.754;2022-09-09T09:10:46;100141.94;;;21.73;56.30
22206;BME280;11272;50.104;8.754;2022-09-09T09:13:20;100137.41;;;21.61;56.11
22206;BME280;11272;50.104;8.754;2022-09-09T09:16:00;100154.16;;;21.53;56.25
22206;BME280;11272;50.104;8.754;2022-09-09T09:18:27;100157.63;;;21.55;56.34
22206;BME280;11272;50.104;8.754;2022-09-09T09:23:58;100135.88;;;21.95;55.74
22206;BME280;11272;50.104;8.754;2022-09-09T09:26:35;100136.81;;;22.30;55.29
22206;BME280;11272;50.104;8.754;2022-09-09T09:29:11;100138.47;;;22.91;53.95
22206;BME280;11272;50.104;8.754;2022-09-09T09:31:37;100150.47;;;23.11;53.35
22206;BME280;11272;50.104;8.754;2022-09-09T09:34:03;100153.03;;;23.01;53.37
22206;BME280;11272;50.104;8.754;2022-09-09T09:36:52;100139.53;;;22.54;54.62
22206;BME280;11272;50.104;8.754;2022-09-09T09:39:31;100141.44;;;22.17;55.83
22206;BME280;11272;50.104;8.754;2022-09-09T09:42:11;100139.72;;;22.03;56.64
22206;BME280;11272;50.104;8.754;2022-09-09T09:44:43;100148.69;;;21.91;57.05
22206;BME280;11272;50.104;8.754;2022-09-09T09:47:17;100157.72;;;21.66;57.70
22206;BME280;11272;50.104;8.754;2022-09-09T09:52:22;100151.34;;;20.24;62.50
22206;BME280;11272;50.104;8.754;2022-09-09T09:54:51;100171.66;;;19.60;65.51
22206;BME280;11272;50.104;8.754;2022-09-09T09:57:27;100164.81;;;18.96;69.59
22206;BME280;11272;50.104;8.754;2022-09-09T10:02:43;100145.81;;;18.54;77.90
22206;BME280;11272;50.104;8.754;2022-09-09T10:05:22;100158.28;;;18.70;78.59
22206;BME280;11272;50.104;8.754;2022-09-09T10:08:11;100153.59;;;18.74;79.88
22206;BME280;11272;50.104;8.754;2022-09-09T10:10:59;100150.03;;;18.73;80.12
22206;BME280;11272;50.104;8.754;2022-09-09T10:19:15;100149.91;;;18.29;81.50
22206;BME280;11272;50.104;8.754;2022-09-09T10:21:58;100131.38;;;18.09;82.93
22206;BME280;11272;50.104;8.754;2022-09-09T10:33:43;100133.09;;;20.41;91.50
22206;BME280;11272;50.104;8.754;2022-09-09T10:36:24;100120.94;;;21.13;92.13
22206;BME280;11272;50.104;8.754;2022-09-09T10:39:04;100118.25;;;22.13;90.34
22206;BME280;11272;50.104;8.754;2022-09-09T10:44:18;100115.22;;;22.65;84.93
22206;BME280;11272;50.104;8.754;2022-09-09T10:52:31;100116.63;;;21.74;78.14
22206;BME280;11272;50.104;8.754;2022-09-09T10:55:06;100105.63;;;21.39;79.56
22206;BME280;11272;50.104;8.754;2022-09-09T10:57:42;100107.78;;;21.09;78.31
22206;BME280;11272;50.104;8.754;2022-09-09T11:00:17;100106.44;;;20.89;79.46
22206;BME280;11272;50.104;8.754;2022-09-09T11:02:55;100118.72;;;20.68;78.18
22206;BME280;11272;50.104;8.754;2022-09-09T11:05:43;100127.66;;;19.73;78.39
22206;BME280;11272;50.104;8.754;2022-09-09T11:08:29;100124.47;;;19.10;82.14
22206;BME280;11272;50.104;8.754;2022-09-09T11:16:42;100126.78;;;19.16;86.98
22206;BME280;11272;50.104;8.754;2022-09-09T11:19:39;100121.50;;;19.86;90.40
22206;BME280;11272;50.104;8.754;2022-09-09T11:22:15;100108.47;;;20.33;90.29
22206;BME280;11272;50.104;8.754;2022-09-09T11:24:48;100113.03;;;20.72;91.02
22206;BME280;11272;50.104;8.754;2022-09-09T11:27:21;100111.09;;;20.99;90.47
22206;BME280;11272;50.104;8.754;2022-09-09T11:30:14;100105.81;;;21.74;93.52
22206;BME280;11272;50.104;8.754;2022-09-09T11:38:19;100115.31;;;21.79;89.57
22206;BME280;11272;50.104;8.754;2022-09-09T11:40:47;100109.59;;;21.59;88.96
22206;BME280;11272;50.104;8.754;2022-09-09T11:43:43;100109.00;;;21.30;88.55
22206;BME280;11272;50.104;8.754;2022-09-09T11:46:10;100109.97;;;21.16;89.00
22206;BME280;11272;50.104;8.754;2022-09-09T11:48:41;100113.38;;;21.06;88.48
22206;BME280;11272;50.104;8.754;2022-09-09T11:53:53;100110.28;;;22.11;91.27
22206;BME280;11272;50.104;8.754;2022-09-09T11:56:41;100104.25;;;22.66;90.59
22206;BME280;11272;50.104;8.754;2022-09-09T11:59:30;100101.69;;;23.11;88.57
22206;BME280;11272;50.104;8.754;2022-09-09T12:01:59;100101.31;;;23.04;87.69
22206;BME280;11272;50.104;8.754;2022-09-09T12:04:37;100106.53;;;22.73;85.19
22206;BME280;11272;50.104;8.754;2022-09-09T12:07:26;100105.25;;;22.18;84.74
22206;BME280;11272;50.104;8.754;2022-09-09T12:12:37;100110.00;;;22.27;86.22
22206;BME280;11272;50.104;8.754;2022-09-09T12:17:45;100101.44;;;23.14;82.62
22206;BME280;11272;50.104;8.754;2022-09-09T12:20:23;100107.59;;;23.05;81.10
22206;BME280;11272;50.104;8.754;2022-09-09T12:28:19;100100.94;;;22.15;77.65
22206;BME280;11272;50.104;8.754;2022-09-09T12:31:10;100100.34;;;21.99;76.38
22206;BME280;11272;50.104;8.754;2022-09-09T12:33:43;100096.78;;;21.99;76.24
22206;BME280;11272;50.104;8.754;2022-09-09T12:36:20;100090.59;;;22.09;74.91
22206;BME280;11272;50.104;8.754;2022-09-09T12:38:46;100094.09;;;21.99;73.81
22206;BME280;11272;50.104;8.754;2022-09-09T12:41:26;100097.63;;;21.63;73.69
22206;BME280;11272;50.104;8.754;2022-09-09T12:44:08;100102.63;;;21.31;73.08
22206;BME280;11272;50.104;8.754;2022-09-09T12:46:38;100111.84;;;20.76;73.23
22206;BME280;11272;50.104;8.754;2022-09-09T12:51:50;100116.78;;;19.75;75.03
22206;BME280;11272;50.104;8.754;2022-09-09T12:54:15;100125.63;;;19.20;76.36
22206;BME280;11272;50.104;8.754;2022-09-09T12:56:46;100138.81;;;18.81;78.20
22206;BME280;11272;50.104;8.754;2022-09-09T12:59:37;100131.78;;;18.64;79.69
22206;BME280;11272;50.104;8.754;2022-09-09T13:02:16;100110.34;;;18.63;80.68
22206;BME280;11272;50.104;8.754;2022-09-09T13:04:43;100108.31;;;18.66;81.35
22206;BME280;11272;50.104;8.754;2022-09-09T13:07:10;100117.63;;;18.61;81.73
22206;BME280;11272;50.104;8.754;2022-09-09T13:09:37;100110.63;;;18.58;82.76
22206;BME280;11272;50.104;8.754;2022-09-09T13:12:04;100123.78;;;18.63;83.47
22206;BME280;11272;50.104;8.754;2022-09-09T13:14:34;100117.16;;;18.68;84.20
22206;BME280;11272;50.104;8.754;2022-09-09T13:17:05;100118.16;;;18.81;84.41
22206;BME280;11272;50.104;8.754;2022-09-09T13:19:35;100105.19;;;18.88;84.97
22206;BME280;11272;50.104;8.754;2022-09-09T13:22:13;100116.81;;;18.88;85.22
22206;BME280;11272;50.104;8.754;2022-09-09T13:24:43;100129.63;;;18.85;85.98
22206;BME280;11272;50.104;8.754;2022-09-09T13:29:53;100126.06;;;18.99;87.49
22206;BME280;11272;50.104;8.754;2022-09-09T13:32:24;100127.16;;;19.10;87.02
22206;BME280;11272;50.104;8.754;2022-09-09T13:34:58;100128.53;;;19.17;88.47
22206;BME280;11272;50.104;8.754;2022-09-09T13:37:33;100126.88;;;19.29;87.37
22206;BME280;11272;50.104;8.754;2022-09-09T13:40:00;100126.50;;;19.35;88.76
22206;BME280;11272;50.104;8.754;2022-09-09T13:42:29;100117.00;;;19.44;88.07
22206;BME280;11272;50.104;8.754;2022-09-09T13:44:56;100109.50;;;19.49;88.29
22206;BME280;11272;50.104;8.754;2022-09-09T13:47:30;100107.28;;;19.69;88.43
22206;BME280;11272;50.104;8.754;2022-09-09T13:49:56;100104.72;;;20.22;88.43
22206;BME280;11272;50.104;8.754;2022-09-09T13:52:22;100095.47;;;21.05;89.08
22206;BME280;11272;50.104;8.754;2022-09-09T13:54:49;100090.94;;;22.05;87.31
22206;BME280;11272;50.104;8.754;2022-09-09T13:57:20;100089.56;;;22.82;86.28
22206;BME280;11272;50.104;8.754;2022-09-09T13:59:47;100103.22;;;23.37;83.12
22206;BME280;11272;50.104;8.754;2022-09-09T14:02:13;100100.66;;;23.58;79.69
22206;BME280;11272;50.104;8.754;2022-09-09T14:04:39;100106.88;;;24.14;79.98
22206;BME280;11272;50.104;8.754;2022-09-09T14:07:10;100107.38;;;24.62;76.38
22206;BME280;11272;50.104;8.754;2022-09-09T14:09:37;100117.38;;;24.94;74.71
22206;BME280;11272;50.104;8.754;2022-09-09T14:12:02;100121.31;;;24.90;72.22
22206;BME280;11272;50.104;8.754;2022-09-09T14:14:28;100127.66;;;24.47;70.90
22206;BME280;11272;50.104;8.754;2022-09-09T14:16:53;100133.06;;;23.93;70.59
22206;BME280;11272;50.104;8.754;2022-09-09T14:19:24;100126.25;;;23.43;69.25
22206;BME280;11272;50.104;8.754;2022-09-09T14:21:50;100124.06;;;22.91;67.83
22206;BME280;11272;50.104;8.754;2022-09-09T14:24:15;100121.50;;;22.42;67.79
22206;BME280;11272;50.104;8.754;2022-09-09T14:26:41;100121.81;;;22.13;67.77
22206;BME280;11272;50.104;8.754;2022-09-09T14:29:08;100131.53;;;21.79;67.24
22206;BME280;11272;50.104;8.754;2022-09-09T14:31:34;100127.13;;;21.53;66.96
22206;BME280;11272;50.104;8.754;2022-09-09T14:33:59;100116.25;;;21.29;67.08
22206;BME280;11272;50.104;8.754;2022-09-09T14:36:25;100117.97;;;21.18;66.98
22206;BME280;11272;50.104;8.754;2022-09-09T14:38:50;100114.78;;;21.11;66.64
22206;BME280;11272;50.104;8.754;2022-09-09T14:41:21;100106.69;;;20.98;66.02
22206;BME280;11272;50.104;8.754;2022-09-09T14:43:48;100102.69;;;20.91;66.38
22206;BME280;11272;50.104;8.754;2022-09-09T14:46:16;100098.06;;;20.93;66.21
22206;BME280;11272;50.104;8.754;2022-09-09T14:48:42;100094.16;;;20.97;66.16
22206;BME280;11272;50.104;8.754;2022-09-09T14:53:38;100084.22;;;20.98;65.32
22206;BME280;11272;50.104;8.754;2022-09-09T14:56:09;100080.97;;;21.06;64.91
22206;BME280;11272;50.104;8.754;2022-09-09T14:58:35;100077.09;;;21.10;64.36
22206;BME280;11272;50.104;8.754;2022-09-09T15:01:10;100068.72;;;21.14;63.69
22206;BME280;11272;50.104;8.754;2022-09-09T15:03:36;100073.00;;;21.17;63.51
22206;BME280;11272;50.104;8.754;2022-09-09T15:06:13;100071.63;;;21.24;62.62
22206;BME280;11272;50.104;8.754;2022-09-09T15:08:41;100063.75;;;21.21;62.89